sensor_id;sensor_type;location;lat;lon;timestamp;pressure;altitude;pressure_sealevel;temperature;humidity
10652;BME280;5374;42.742;23.266;2023-10-08T00:02:00;95893.34;;;12.02;56.49
10652;BME280;5374;42.742;23.266;2023-10-08T00:04:47;95880.50;;;11.94;56.93
10652;BME280;5374;42.742;23.266;2023-10-08T00:07:36;95892.22;;;11.98;56.91
10652;BME280;5374;42.742;23.266;2023-10-08T00:10:28;95888.75;;;11.97;57.32
10652;BME280;5374;42.742;23.266;2023-10-08T00:13:20;95878.63;;;11.94;57.45
10652;BME280;5374;42.742;23.266;2023-10-08T00:16:08;95883.16;;;11.94;57.73
10652;BME280;5374;42.742;23.266;2023-10-08T00:18:57;95880.25;;;11.95;57.92
10652;BME280;5374;42.742;23.266;2023-10-08T00:21:53;95886.53;;;11.89;58.17
10652;BME280;5374;42.742;23.266;2023-10-08T00:24:41;95876.06;;;11.83;58.06
10652;BME280;5374;42.742;23.266;2023-10-08T00:27:29;95862.69;;;11.78;57.93
10652;BME280;5374;42.742;23.266;2023-10-08T00:30:24;95862.06;;;11.71;57.96
10652;BME280;5374;42.742;23.266;2023-10-08T00:33:11;95868.91;;;11.67;57.97
10652;BME280;5374;42.742;23.266;2023-10-08T00:36:00;95869.66;;;11.62;58.12
10652;BME280;5374;42.742;23.266;2023-10-08T00:39:03;95864.63;;;11.44;58.08
10652;BME280;5374;42.742;23.266;2023-10-08T00:41:54;95879.75;;;11.43;58.15
10652;BME280;5374;42.742;23.266;2023-10-08T00:44:44;95868.72;;;11.35;58.56
10652;BME280;5374;42.742;23.266;2023-10-08T00:47:36;95864.22;;;11.35;58.64
10652;BME280;5374;42.742;23.266;2023-10-08T00:50:28;95859.47;;;11.37;58.53
10652;BME280;5374;42.742;23.266;2023-10-08T00:53:29;95863.97;;;11.37;58.69
10652;BME280;5374;42.742;23.266;2023-10-08T00:56:25;95862.13;;;11.37;58.79
10652;BME280;5374;42.742;23.266;2023-10-08T00:59:32;95861.78;;;11.34;59.07
10652;BME280;5374;42.742;23.266;2023-10-08T01:02:29;95862.28;;;11.30;59.01
10652;BME280;5374;42.742;23.266;2023-10-08T01:05:29;95852.16;;;11.27;59.23
10652;BME280;5374;42.742;23.266;2023-10-08T01:08:29;95854.84;;;11.32;59.33
10652;BME280;5374;42.742;23.266;2023-10-08T01:11:23;95860.19;;;11.32;59.17
10652;BME280;5374;42.742;23.266;2023-10-08T01:14:16;95857.16;;;11.24;59.50
10652;BME280;5374;42.742;23.266;2023-10-08T01:17:06;95852.78;;;11.18;59.62
10652;BME280;5374;42.742;23.266;2023-10-08T01:19:53;95856.81;;;11.20;59.77
10652;BME280;5374;42.742;23.266;2023-10-08T01:22:56;95846.81;;;11.11;59.98
10652;BME280;5374;42.742;23.266;2023-10-08T01:25:43;95855.69;;;11.16;60.24
10652;BME280;5374;42.742;23.266;2023-10-08T01:28:36;95857.78;;;11.14;60.18
10652;BME280;5374;42.742;23.266;2023-10-08T01:31:24;95859.63;;;11.14;60.31
10652;BME280;5374;42.742;23.266;2023-10-08T01:34:11;95857.78;;;11.14;60.37
10652;BME280;5374;42.742;23.266;2023-10-08T01:37:02;95859.97;;;11.01;60.57
10652;BME280;5374;42.742;23.266;2023-10-08T01:39:55;95860.13;;;11.11;60.45
10652;BME280;5374;42.742;23.266;2023-10-08T01:42:50;95849.97;;;11.08;61.28
10652;BME280;5374;42.742;23.266;2023-10-08T01:45:38;95842.66;;;10.98;61.83
10652;BME280;5374;42.742;23.266;2023-10-08T01:48:28;95852.81;;;11.01;62.20
10652;BME280;5374;42.742;23.266;2023-10-08T01:51:22;95850.88;;;10.96;62.71
10652;BME280;5374;42.742;23.266;2023-10-08T01:54:14;95852.97;;;10.94;63.01
10652;BME280;5374;42.742;23.266;2023-10-08T01:57:05;95855.03;;;10.92;62.94
10652;BME280;5374;42.742;23.266;2023-10-08T01:59:55;95854.25;;;10.92;62.91
10652;BME280;5374;42.742;23.266;2023-10-08T02:02:42;95825.81;;;10.76;63.27
10652;BME280;5374;42.742;23.266;2023-10-08T02:05:29;95831.72;;;10.78;63.40
10652;BME280;5374;42.742;23.266;2023-10-08T02:08:16;95831.38;;;10.74;63.94
10652;BME280;5374;42.742;23.266;2023-10-08T02:11:03;95838.38;;;10.80;64.03
10652;BME280;5374;42.742;23.266;2023-10-08T02:13:52;95838.97;;;10.82;64.40
10652;BME280;5374;42.742;23.266;2023-10-08T02:16:39;95839.09;;;10.76;64.78
10652;BME280;5374;42.742;23.266;2023-10-08T02:19:28;95847.88;;;10.76;65.09
10652;BME280;5374;42.742;23.266;2023-10-08T02:22:15;95837.63;;;10.68;65.16
10652;BME280;5374;42.742;23.266;2023-10-08T02:25:02;95813.50;;;10.53;65.36
10652;BME280;5374;42.742;23.266;2023-10-08T02:27:50;95846.75;;;10.72;65.58
10652;BME280;5374;42.742;23.266;2023-10-08T02:30:38;95841.34;;;10.67;65.72
10652;BME280;5374;42.742;23.266;2023-10-08T02:33:27;95843.75;;;10.69;65.69
10652;BME280;5374;42.742;23.266;2023-10-08T02:36:16;95839.16;;;10.64;65.88
10652;BME280;5374;42.742;23.266;2023-10-08T02:39:04;95831.13;;;10.59;66.03
10652;BME280;5374;42.742;23.266;2023-10-08T02:41:59;95828.25;;;10.60;66.45
10652;BME280;5374;42.742;23.266;2023-10-08T02:44:46;95840.72;;;10.60;67.00
10652;BME280;5374;42.742;23.266;2023-10-08T02:47:34;95838.53;;;10.57;67.34
10652;BME280;5374;42.742;23.266;2023-10-08T02:50:22;95843.28;;;10.55;67.63
10652;BME280;5374;42.742;23.266;2023-10-08T02:53:09;95846.41;;;10.52;67.84
10652;BME280;5374;42.742;23.266;2023-10-08T02:55:57;95849.53;;;10.49;67.81
10652;BME280;5374;42.742;23.266;2023-10-08T02:58:44;95845.50;;;10.46;67.85
10652;BME280;5374;42.742;23.266;2023-10-08T03:01:33;95847.56;;;10.44;67.90
10652;BME280;5374;42.742;23.266;2023-10-08T03:04:22;95848.06;;;10.41;68.29
10652;BME280;5374;42.742;23.266;2023-10-08T03:07:09;95836.00;;;10.34;68.72
10652;BME280;5374;42.742;23.266;2023-10-08T03:10:07;95836.00;;;10.34;69.03
10652;BME280;5374;42.742;23.266;2023-10-08T03:13:04;95841.53;;;10.32;69.27
10652;BME280;5374;42.742;23.266;2023-10-08T03:15:53;95843.63;;;10.30;69.40
10652;BME280;5374;42.742;23.266;2023-10-08T03:18:54;95839.59;;;10.27;69.40
10652;BME280;5374;42.742;23.266;2023-10-08T03:21:44;95837.41;;;10.24;69.27
10652;BME280;5374;42.742;23.266;2023-10-08T03:24:36;95842.47;;;10.26;69.26
10652;BME280;5374;42.742;23.266;2023-10-08T03:27:27;95842.13;;;10.22;69.30
10652;BME280;5374;42.742;23.266;2023-10-08T03:30:14;95827.06;;;10.11;69.15
10652;BME280;5374;42.742;23.266;2023-10-08T03:33:02;95836.97;;;10.16;69.11
10652;BME280;5374;42.742;23.266;2023-10-08T03:35:56;95820.59;;;10.07;69.36
10652;BME280;5374;42.742;23.266;2023-10-08T03:38:44;95806.19;;;10.03;70.39
10652;BME280;5374;42.742;23.266;2023-10-08T03:41:35;95805.38;;;10.03;70.65
10652;BME280;5374;42.742;23.266;2023-10-08T03:44:25;95819.78;;;10.07;71.19
10652;BME280;5374;42.742;23.266;2023-10-08T03:47:15;95812.06;;;10.05;71.42
10652;BME280;5374;42.742;23.266;2023-10-08T03:50:06;95815.44;;;10.01;71.46
10652;BME280;5374;42.742;23.266;2023-10-08T03:52:53;95816.81;;;10.03;71.61
10652;BME280;5374;42.742;23.266;2023-10-08T03:55:42;95814.63;;;10.00;71.35
10652;BME280;5374;42.742;23.266;2023-10-08T03:58:30;95806.56;;;9.95;71.36
10652;BME280;5374;42.742;23.266;2023-10-08T04:01:24;95804.06;;;9.88;71.93
10652;BME280;5374;42.742;23.266;2023-10-08T04:04:15;95813.06;;;9.87;72.06
10652;BME280;5374;42.742;23.266;2023-10-08T04:07:02;95799.94;;;9.81;72.30
10652;BME280;5374;42.742;23.266;2023-10-08T04:10:06;95816.41;;;9.83;72.32
10652;BME280;5374;42.742;23.266;2023-10-08T04:13:37;95810.53;;;9.81;72.15
10652;BME280;5374;42.742;23.266;2023-10-08T04:16:34;95773.13;;;9.54;72.00
10652;BME280;5374;42.742;23.266;2023-10-08T04:19:26;95738.50;;;9.32;71.74
10652;BME280;5374;42.742;23.266;2023-10-08T04:22:15;95737.69;;;9.32;71.11
10652;BME280;5374;42.742;23.266;2023-10-08T04:25:04;95733.25;;;9.20;70.57
10652;BME280;5374;42.742;23.266;2023-10-08T04:28:00;95761.88;;;9.47;70.04
10652;BME280;5374;42.742;23.266;2023-10-08T04:30:50;95784.19;;;9.63;69.75
10652;BME280;5374;42.742;23.266;2023-10-08T04:33:44;95680.41;;;9.02;69.63
10652;BME280;5374;42.742;23.266;2023-10-08T04:36:38;95695.28;;;9.03;69.41
10652;BME280;5374;42.742;23.266;2023-10-08T04:39:29;95691.13;;;8.96;69.10
10652;BME280;5374;42.742;23.266;2023-10-08T04:42:21;95740.38;;;9.20;68.61
10652;BME280;5374;42.742;23.266;2023-10-08T04:45:13;95827.03;;;9.83;68.88
10652;BME280;5374;42.742;23.266;2023-10-08T04:48:07;95695.59;;;9.07;69.07
10652;BME280;5374;42.742;23.266;2023-10-08T04:50:56;95742.41;;;9.41;69.56
10652;BME280;5374;42.742;23.266;2023-10-08T04:53:52;95782.81;;;9.60;69.84
10652;BME280;5374;42.742;23.266;2023-10-08T04:56:42;95764.31;;;9.48;69.97
10652;BME280;5374;42.742;23.266;2023-10-08T04:59:35;95812.91;;;9.94;69.90
10652;BME280;5374;42.742;23.266;2023-10-08T05:02:24;95813.25;;;9.98;69.49
10652;BME280;5374;42.742;23.266;2023-10-08T05:05:21;95821.97;;;10.10;69.33
10652;BME280;5374;42.742;23.266;2023-10-08T05:08:09;95818.72;;;10.19;68.99
10652;BME280;5374;42.742;23.266;2023-10-08T05:11:14;95827.34;;;10.26;69.25
10652;BME280;5374;42.742;23.266;2023-10-08T05:14:19;95832.69;;;10.43;69.38
10652;BME280;5374;42.742;23.266;2023-10-08T05:17:20;95823.00;;;11.54;67.37
10652;BME280;5374;42.742;23.266;2023-10-08T05:20:09;95825.34;;;15.55;55.86
10652;BME280;5374;42.742;23.266;2023-10-08T05:23:08;95810.19;;;19.68;43.01
10652;BME280;5374;42.742;23.266;2023-10-08T05:26:07;95803.59;;;22.73;36.45
10652;BME280;5374;42.742;23.266;2023-10-08T05:29:06;95816.63;;;25.13;31.64
10652;BME280;5374;42.742;23.266;2023-10-08T05:32:20;95817.72;;;27.40;28.71
10652;BME280;5374;42.742;23.266;2023-10-08T05:35:24;95814.75;;;29.21;26.54
10652;BME280;5374;42.742;23.266;2023-10-08T05:38:26;95825.72;;;30.51;24.78
10652;BME280;5374;42.742;23.266;2023-10-08T05:41:27;95823.16;;;31.48;22.97
10652;BME280;5374;42.742;23.266;2023-10-08T05:44:24;95817.06;;;32.43;22.04
10652;BME280;5374;42.742;23.266;2023-10-08T05:47:24;95824.84;;;33.76;20.49
10652;BME280;5374;42.742;23.266;2023-10-08T05:50:30;95830.13;;;34.41;20.15
10652;BME280;5374;42.742;23.266;2023-10-08T05:53:26;95829.94;;;35.48;18.88
10652;BME280;5374;42.742;23.266;2023-10-08T05:56:29;95836.44;;;36.96;17.98
10652;BME280;5374;42.742;23.266;2023-10-08T05:59:28;95838.78;;;37.73;17.49
10652;BME280;5374;42.742;23.266;2023-10-08T06:02:25;95846.22;;;38.84;16.34
10652;BME280;5374;42.742;23.266;2023-10-08T06:05:13;95843.34;;;39.54;15.92
10652;BME280;5374;42.742;23.266;2023-10-08T06:08:09;95830.41;;;40.68;15.07
10652;BME280;5374;42.742;23.266;2023-10-08T06:11:02;95832.47;;;41.42;14.67
10652;BME280;5374;42.742;23.266;2023-10-08T06:14:03;95825.81;;;42.06;14.38
10652;BME280;5374;42.742;23.266;2023-10-08T06:16:59;95832.84;;;42.61;13.91
10652;BME280;5374;42.742;23.266;2023-10-08T06:19:59;95823.19;;;42.75;13.60
10652;BME280;5374;42.742;23.266;2023-10-08T06:23:02;95831.94;;;43.24;13.57
10652;BME280;5374;42.742;23.266;2023-10-08T06:25:53;95838.88;;;43.85;13.26
10652;BME280;5374;42.742;23.266;2023-10-08T06:28:44;95834.06;;;43.86;13.49
10652;BME280;5374;42.742;23.266;2023-10-08T06:31:31;95833.81;;;44.33;12.53
10652;BME280;5374;42.742;23.266;2023-10-08T06:34:21;95825.28;;;43.53;13.03
10652;BME280;5374;42.742;23.266;2023-10-08T06:37:13;95815.66;;;44.07;13.28
10652;BME280;5374;42.742;23.266;2023-10-08T06:40:02;95823.19;;;44.59;12.71
10652;BME280;5374;42.742;23.266;2023-10-08T06:42:51;95820.31;;;44.90;12.07
10652;BME280;5374;42.742;23.266;2023-10-08T06:45:45;95816.88;;;44.37;12.74
10652;BME280;5374;42.742;23.266;2023-10-08T06:48:32;95811.16;;;43.78;12.88
10652;BME280;5374;42.742;23.266;2023-10-08T06:51:20;95821.16;;;43.88;13.33
10652;BME280;5374;42.742;23.266;2023-10-08T06:54:07;95820.53;;;43.41;12.78
10652;BME280;5374;42.742;23.266;2023-10-08T06:56:56;95815.78;;;42.47;13.60
10652;BME280;5374;42.742;23.266;2023-10-08T06:59:43;95802.63;;;40.97;14.45
10652;BME280;5374;42.742;23.266;2023-10-08T07:02:33;95807.66;;;39.09;15.73
10652;BME280;5374;42.742;23.266;2023-10-08T07:05:20;95802.50;;;36.89;16.90
10652;BME280;5374;42.742;23.266;2023-10-08T07:08:08;95794.50;;;35.21;18.80
10652;BME280;5374;42.742;23.266;2023-10-08T07:10:55;95797.31;;;33.76;20.39
10652;BME280;5374;42.742;23.266;2023-10-08T07:13:44;95794.56;;;32.82;20.62
10652;BME280;5374;42.742;23.266;2023-10-08T07:16:31;95785.72;;;31.67;21.68
10652;BME280;5374;42.742;23.266;2023-10-08T07:19:21;95795.06;;;29.74;24.04
10652;BME280;5374;42.742;23.266;2023-10-08T07:22:18;95786.53;;;28.63;25.64
10652;BME280;5374;42.742;23.266;2023-10-08T07:25:08;95785.97;;;27.47;26.70
10652;BME280;5374;42.742;23.266;2023-10-08T07:27:59;95780.31;;;26.84;27.78
10652;BME280;5374;42.742;23.266;2023-10-08T07:30:49;95788.66;;;26.27;28.17
10652;BME280;5374;42.742;23.266;2023-10-08T07:33:38;95780.69;;;25.85;29.28
10652;BME280;5374;42.742;23.266;2023-10-08T07:36:27;95775.78;;;25.21;30.92
10652;BME280;5374;42.742;23.266;2023-10-08T07:39:17;95768.94;;;25.15;30.07
10652;BME280;5374;42.742;23.266;2023-10-08T07:42:12;95763.94;;;25.05;31.40
10652;BME280;5374;42.742;23.266;2023-10-08T07:44:59;95752.84;;;24.89;32.05
10652;BME280;5374;42.742;23.266;2023-10-08T07:47:47;95751.38;;;24.92;31.52
10652;BME280;5374;42.742;23.266;2023-10-08T07:50:34;95732.25;;;24.68;31.06
10652;BME280;5374;42.742;23.266;2023-10-08T07:53:24;95749.28;;;24.77;31.91
10652;BME280;5374;42.742;23.266;2023-10-08T07:56:23;95743.19;;;24.80;31.40
10652;BME280;5374;42.742;23.266;2023-10-08T07:59:10;95738.47;;;24.89;31.12
10652;BME280;5374;42.742;23.266;2023-10-08T08:02:00;95719.53;;;24.80;30.74
10652;BME280;5374;42.742;23.266;2023-10-08T08:04:51;95723.03;;;25.02;30.78
10652;BME280;5374;42.742;23.266;2023-10-08T08:07:38;95732.41;;;25.25;29.67
10652;BME280;5374;42.742;23.266;2023-10-08T08:10:26;95723.53;;;25.16;28.30
10652;BME280;5374;42.742;23.266;2023-10-08T08:13:15;95722.28;;;25.13;28.25
10652;BME280;5374;42.742;23.266;2023-10-08T08:16:05;95732.75;;;25.24;28.13
10652;BME280;5374;42.742;23.266;2023-10-08T08:19:06;95725.84;;;25.38;27.54
10652;BME280;5374;42.742;23.266;2023-10-08T08:21:55;95712.38;;;25.30;27.74
10652;BME280;5374;42.742;23.266;2023-10-08T08:24:48;95707.03;;;25.33;28.16
10652;BME280;5374;42.742;23.266;2023-10-08T08:27:40;95710.25;;;25.60;27.88
10652;BME280;5374;42.742;23.266;2023-10-08T08:30:29;95701.56;;;25.66;27.56
10652;BME280;5374;42.742;23.266;2023-10-08T08:33:19;95705.63;;;25.84;27.18
10652;BME280;5374;42.742;23.266;2023-10-08T08:36:08;95704.50;;;25.73;26.71
10652;BME280;5374;42.742;23.266;2023-10-08T08:38:56;95706.94;;;25.54;27.46
10652;BME280;5374;42.742;23.266;2023-10-08T08:41:43;95696.31;;;25.61;27.24
10652;BME280;5374;42.742;23.266;2023-10-08T08:44:44;95689.88;;;25.78;27.09
10652;BME280;5374;42.742;23.266;2023-10-08T08:47:32;95690.09;;;25.85;26.48
10652;BME280;5374;42.742;23.266;2023-10-08T08:50:19;95688.41;;;25.68;26.67
10652;BME280;5374;42.742;23.266;2023-10-08T08:53:07;95690.22;;;25.88;26.58
10652;BME280;5374;42.742;23.266;2023-10-08T08:55:55;95686.94;;;25.95;26.69
10652;BME280;5374;42.742;23.266;2023-10-08T08:58:44;95677.75;;;25.87;26.65
10652;BME280;5374;42.742;23.266;2023-10-08T09:01:33;95675.47;;;25.89;26.12
10652;BME280;5374;42.742;23.266;2023-10-08T09:04:28;95675.13;;;25.79;26.99
10652;BME280;5374;42.742;23.266;2023-10-08T09:07:19;95679.75;;;26.15;27.09
10652;BME280;5374;42.742;23.266;2023-10-08T09:10:07;95670.97;;;26.46;27.25
10652;BME280;5374;42.742;23.266;2023-10-08T09:12:58;95671.44;;;26.76;26.70
10652;BME280;5374;42.742;23.266;2023-10-08T09:15:45;95664.34;;;26.87;26.27
10652;BME280;5374;42.742;23.266;2023-10-08T09:18:34;95670.78;;;26.95;26.23
10652;BME280;5374;42.742;23.266;2023-10-08T09:21:21;95670.41;;;26.80;26.31
10652;BME280;5374;42.742;23.266;2023-10-08T09:24:08;95665.72;;;26.81;26.06
10652;BME280;5374;42.742;23.266;2023-10-08T09:26:57;95670.44;;;26.68;26.58
10652;BME280;5374;42.742;23.266;2023-10-08T09:29:46;95655.84;;;26.61;25.95
10652;BME280;5374;42.742;23.266;2023-10-08T09:32:33;95663.25;;;26.48;26.24
10652;BME280;5374;42.742;23.266;2023-10-08T09:35:22;95660.41;;;26.44;25.75
10652;BME280;5374;42.742;23.266;2023-10-08T09:38:11;95659.69;;;26.60;25.96
10652;BME280;5374;42.742;23.266;2023-10-08T09:40:59;95665.25;;;26.63;25.64
10652;BME280;5374;42.742;23.266;2023-10-08T09:43:48;95652.44;;;26.79;25.59
10652;BME280;5374;42.742;23.266;2023-10-08T09:46:37;95646.06;;;26.87;25.73
10652;BME280;5374;42.742;23.266;2023-10-08T09:49:30;95648.06;;;27.18;25.73
10652;BME280;5374;42.742;23.266;2023-10-08T09:52:24;95641.19;;;27.40;25.21
10652;BME280;5374;42.742;23.266;2023-10-08T09:55:13;95640.78;;;27.54;25.13
10652;BME280;5374;42.742;23.266;2023-10-08T09:58:04;95651.88;;;27.61;24.66
10652;BME280;5374;42.742;23.266;2023-10-08T10:00:55;95638.41;;;27.68;24.37
10652;BME280;5374;42.742;23.266;2023-10-08T10:03:43;95633.97;;;27.79;24.65
10652;BME280;5374;42.742;23.266;2023-10-08T10:06:31;95632.25;;;27.71;24.73
10652;BME280;5374;42.742;23.266;2023-10-08T10:09:22;95631.09;;;27.72;24.74
10652;BME280;5374;42.742;23.266;2023-10-08T10:12:10;95629.41;;;27.52;24.36
10652;BME280;5374;42.742;23.266;2023-10-08T10:14:58;95629.59;;;27.28;25.00
10652;BME280;5374;42.742;23.266;2023-10-08T10:17:47;95631.78;;;27.06;25.18
10652;BME280;5374;42.742;23.266;2023-10-08T10:20:39;95629.06;;;27.22;25.82
10652;BME280;5374;42.742;23.266;2023-10-08T10:23:36;95621.81;;;26.98;25.37
10652;BME280;5374;42.742;23.266;2023-10-08T10:26:28;95602.94;;;26.77;26.61
10652;BME280;5374;42.742;23.266;2023-10-08T10:29:22;95607.75;;;26.96;26.79
10652;BME280;5374;42.742;23.266;2023-10-08T10:32:13;95603.19;;;27.00;26.62
10652;BME280;5374;42.742;23.266;2023-10-08T10:35:05;95601.13;;;26.81;26.62
10652;BME280;5374;42.742;23.266;2023-10-08T10:37:57;95589.91;;;26.55;26.60
10652;BME280;5374;42.742;23.266;2023-10-08T10:40:49;95596.44;;;26.26;27.25
10652;BME280;5374;42.742;23.266;2023-10-08T10:43:44;95582.53;;;26.15;27.35
10652;BME280;5374;42.742;23.266;2023-10-08T10:46:40;95575.50;;;26.14;28.04
10652;BME280;5374;42.742;23.266;2023-10-08T10:49:28;95582.50;;;26.40;27.97
10652;BME280;5374;42.742;23.266;2023-10-08T10:52:21;95578.47;;;26.49;27.15
10652;BME280;5374;42.742;23.266;2023-10-08T10:55:20;95569.31;;;26.42;28.15
10652;BME280;5374;42.742;23.266;2023-10-08T10:58:11;95566.66;;;26.45;28.08
10652;BME280;5374;42.742;23.266;2023-10-08T11:01:03;95551.81;;;26.15;28.10
10652;BME280;5374;42.742;23.266;2023-10-08T11:04:08;95562.09;;;25.81;28.16
10652;BME280;5374;42.742;23.266;2023-10-08T11:07:01;95549.69;;;25.44;28.79
10652;BME280;5374;42.742;23.266;2023-10-08T11:09:52;95547.53;;;25.37;29.29
10652;BME280;5374;42.742;23.266;2023-10-08T11:12:41;95535.72;;;25.58;29.59
10652;BME280;5374;42.742;23.266;2023-10-08T11:15:38;95539.00;;;25.75;28.71
10652;BME280;5374;42.742;23.266;2023-10-08T11:18:27;95518.63;;;25.45;29.28
10652;BME280;5374;42.742;23.266;2023-10-08T11:21:14;95531.66;;;25.39;28.64
10652;BME280;5374;42.742;23.266;2023-10-08T11:24:02;95542.66;;;25.43;29.13
10652;BME280;5374;42.742;23.266;2023-10-08T11:26:58;95540.16;;;25.38;28.94
10652;BME280;5374;42.742;23.266;2023-10-08T11:30:01;95525.31;;;25.35;29.36
10652;BME280;5374;42.742;23.266;2023-10-08T11:32:53;95525.47;;;25.27;29.67
10652;BME280;5374;42.742;23.266;2023-10-08T11:36:00;95532.94;;;25.05;29.61
10652;BME280;5374;42.742;23.266;2023-10-08T11:38:50;95505.72;;;24.93;30.04
10652;BME280;5374;42.742;23.266;2023-10-08T11:41:39;95521.38;;;25.20;29.70
10652;BME280;5374;42.742;23.266;2023-10-08T11:44:35;95502.75;;;25.47;29.54
10652;BME280;5374;42.742;23.266;2023-10-08T11:47:22;95528.13;;;25.63;29.64
10652;BME280;5374;42.742;23.266;2023-10-08T11:50:11;95511.09;;;25.78;29.12
10652;BME280;5374;42.742;23.266;2023-10-08T11:53:05;95506.16;;;25.68;29.47
10652;BME280;5374;42.742;23.266;2023-10-08T11:55:57;95510.53;;;25.61;29.61
10652;BME280;5374;42.742;23.266;2023-10-08T11:58:45;95506.16;;;25.68;29.77
10652;BME280;5374;42.742;23.266;2023-10-08T12:01:35;95505.91;;;25.61;30.21
10652;BME280;5374;42.742;23.266;2023-10-08T12:04:23;95514.09;;;25.49;30.29
10652;BME280;5374;42.742;23.266;2023-10-08T12:07:11;95515.13;;;25.32;30.11
10652;BME280;5374;42.742;23.266;2023-10-08T12:10:00;95511.28;;;25.09;30.76
10652;BME280;5374;42.742;23.266;2023-10-08T12:12:49;95512.53;;;24.99;31.18
10652;BME280;5374;42.742;23.266;2023-10-08T12:15:37;95516.13;;;24.91;31.04
10652;BME280;5374;42.742;23.266;2023-10-08T12:18:27;95517.03;;;24.83;31.35
10652;BME280;5374;42.742;23.266;2023-10-08T12:21:15;95503.91;;;24.85;31.21
10652;BME280;5374;42.742;23.266;2023-10-08T12:24:03;95525.25;;;25.07;31.32
10652;BME280;5374;42.742;23.266;2023-10-08T12:26:52;95520.69;;;24.99;31.24
10652;BME280;5374;42.742;23.266;2023-10-08T12:29:39;95524.09;;;24.96;31.20
10652;BME280;5374;42.742;23.266;2023-10-08T12:32:28;95520.25;;;24.97;31.37
10652;BME280;5374;42.742;23.266;2023-10-08T12:35:16;95528.19;;;25.02;31.39
10652;BME280;5374;42.742;23.266;2023-10-08T12:38:06;95511.06;;;25.26;31.21
10652;BME280;5374;42.742;23.266;2023-10-08T12:40:54;95499.00;;;25.64;30.76
10652;BME280;5374;42.742;23.266;2023-10-08T12:43:44;95507.56;;;25.90;30.56
10652;BME280;5374;42.742;23.266;2023-10-08T12:46:32;95499.28;;;25.86;30.31
10652;BME280;5374;42.742;23.266;2023-10-08T12:49:19;95504.84;;;25.90;30.13
10652;BME280;5374;42.742;23.266;2023-10-08T12:52:07;95505.56;;;25.75;30.58
10652;BME280;5374;42.742;23.266;2023-10-08T12:54:57;95493.88;;;25.62;30.24
10652;BME280;5374;42.742;23.266;2023-10-08T13:00:42;95497.03;;;25.76;30.07
10652;BME280;5374;42.742;23.266;2023-10-08T13:03:35;95500.31;;;25.82;29.55
10652;BME280;5374;42.742;23.266;2023-10-08T13:06:27;95488.97;;;25.80;29.80
10652;BME280;5374;42.742;23.266;2023-10-08T13:09:15;95495.97;;;25.93;29.45
10652;BME280;5374;42.742;23.266;2023-10-08T13:12:06;95489.13;;;25.99;29.10
10652;BME280;5374;42.742;23.266;2023-10-08T13:14:55;95495.31;;;25.84;29.18
10652;BME280;5374;42.742;23.266;2023-10-08T13:17:46;95492.38;;;25.77;29.43
10652;BME280;5374;42.742;23.266;2023-10-08T13:20:34;95478.75;;;25.49;29.68
10652;BME280;5374;42.742;23.266;2023-10-08T13:23:21;95485.22;;;25.44;29.56
10652;BME280;5374;42.742;23.266;2023-10-08T13:26:09;95468.03;;;25.28;30.16
10652;BME280;5374;42.742;23.266;2023-10-08T13:29:02;95477.53;;;25.22;30.40
10652;BME280;5374;42.742;23.266;2023-10-08T13:31:50;95469.31;;;25.06;30.64
10652;BME280;5374;42.742;23.266;2023-10-08T13:34:39;95473.31;;;24.88;31.13
10652;BME280;5374;42.742;23.266;2023-10-08T13:37:28;95471.53;;;24.80;31.17
10652;BME280;5374;42.742;23.266;2023-10-08T13:40:15;95486.69;;;24.93;31.11
10652;BME280;5374;42.742;23.266;2023-10-08T13:43:02;95485.38;;;24.99;30.95
10652;BME280;5374;42.742;23.266;2023-10-08T13:45:51;95484.91;;;24.85;30.93
10652;BME280;5374;42.742;23.266;2023-10-08T13:48:40;95482.72;;;24.91;31.32
10652;BME280;5374;42.742;23.266;2023-10-08T13:51:28;95478.25;;;25.07;31.10
10652;BME280;5374;42.742;23.266;2023-10-08T13:54:16;95481.84;;;25.11;31.21
10652;BME280;5374;42.742;23.266;2023-10-08T13:57:06;95489.19;;;25.10;31.12
10652;BME280;5374;42.742;23.266;2023-10-08T13:59:54;95486.47;;;25.10;31.19
10652;BME280;5374;42.742;23.266;2023-10-08T14:02:41;95482.88;;;25.06;30.98
10652;BME280;5374;42.742;23.266;2023-10-08T14:05:30;95487.75;;;25.01;30.96
10652;BME280;5374;42.742;23.266;2023-10-08T14:08:19;95476.75;;;25.09;31.10
10652;BME280;5374;42.742;23.266;2023-10-08T14:11:07;95475.28;;;25.12;31.07
10652;BME280;5374;42.742;23.266;2023-10-08T14:13:58;95473.34;;;25.12;31.24
10652;BME280;5374;42.742;23.266;2023-10-08T14:16:48;95491.84;;;25.07;30.92
10652;BME280;5374;42.742;23.266;2023-10-08T14:19:38;95495.44;;;24.99;31.54
10652;BME280;5374;42.742;23.266;2023-10-08T14:22:31;95491.00;;;24.94;31.55
10652;BME280;5374;42.742;23.266;2023-10-08T14:25:22;95492.25;;;24.84;30.94
10652;BME280;5374;42.742;23.266;2023-10-08T14:28:10;95488.63;;;24.80;31.00
10652;BME280;5374;42.742;23.266;2023-10-08T14:31:07;95491.66;;;24.67;31.29
10652;BME280;5374;42.742;23.266;2023-10-08T14:33:54;95485.56;;;24.58;31.30
10652;BME280;5374;42.742;23.266;2023-10-08T14:37:04;95493.53;;;24.42;31.58
10652;BME280;5374;42.742;23.266;2023-10-08T14:40:09;95495.69;;;24.36;31.59
10652;BME280;5374;42.742;23.266;2023-10-08T14:43:15;95493.84;;;24.28;31.76
10652;BME280;5374;42.742;23.266;2023-10-08T14:46:05;95486.88;;;24.18;31.75
10652;BME280;5374;42.742;23.266;2023-10-08T14:48:55;95498.97;;;24.09;32.16
10652;BME280;5374;42.742;23.266;2023-10-08T14:51:42;95492.69;;;23.96;32.35
10652;BME280;5374;42.742;23.266;2023-10-08T14:54:29;95490.72;;;23.84;32.34
10652;BME280;5374;42.742;23.266;2023-10-08T14:57:16;95500.19;;;23.78;32.44
10652;BME280;5374;42.742;23.266;2023-10-08T15:00:07;95505.81;;;23.73;32.94
10652;BME280;5374;42.742;23.266;2023-10-08T15:02:55;95499.94;;;23.71;32.92
10652;BME280;5374;42.742;23.266;2023-10-08T15:05:43;95503.66;;;23.67;33.24
10652;BME280;5374;42.742;23.266;2023-10-08T15:08:31;95501.94;;;23.62;33.39
10652;BME280;5374;42.742;23.266;2023-10-08T15:11:18;95511.84;;;23.58;33.58